Aviation Digital Data Service (ADDS)

Output produced by TAFs form (0107 UTC 24 August 2017)
found at http://www.aviationweather.gov/adds/tafs/
 
KGSO 232327Z 2400/2424 35006KT P6SM BKN050 
     FM240900 04007KT P6SM BKN050